createdAt,value
2023-03-29T00:03:52.048Z,9.50
2023-03-29T00:08:56.582Z,7.20
2023-03-29T00:13:58.174Z,11.00
2023-03-29T00:18:59.765Z,9.40
2023-03-29T00:24:01.526Z,12.70
2023-03-29T00:29:03.590Z,8.70
2023-03-29T00:34:05.115Z,7.20
2023-03-29T00:39:06.993Z,12.00
2023-03-29T00:44:47.542Z,9.70
2023-03-29T00:49:50.529Z,8.60
2023-03-29T00:54:55.205Z,9.10
2023-03-29T00:59:58.737Z,7.80
2023-03-29T01:05:10.498Z,7.70
2023-03-29T01:10:27.214Z,8.40
2023-03-29T01:15:29.457Z,9.50
2023-03-29T01:20:38.795Z,7.50
2023-03-29T01:26:13.043Z,8.10
2023-03-29T01:31:26.845Z,8.10
2023-03-29T01:36:38.788Z,10.20
2023-03-29T01:41:53.968Z,9.00
2023-03-29T01:47:08.717Z,10.30
2023-03-29T01:52:19.090Z,8.00
2023-03-29T01:57:25.180Z,10.30
2023-03-29T02:02:31.015Z,10.70
2023-03-29T02:07:37.472Z,6.60
2023-03-29T02:12:39.449Z,7.30
2023-03-29T02:17:42.756Z,6.70
2023-03-29T02:22:57.065Z,4.50
2023-03-29T02:28:01.830Z,7.90
2023-03-29T02:33:15.767Z,7.30
2023-03-29T02:38:17.361Z,8.30
2023-03-29T02:43:22.634Z,8.60
2023-03-29T02:48:28.274Z,10.80
2023-03-29T02:53:41.427Z,8.80
2023-03-29T02:58:42.927Z,12.90
2023-03-29T03:03:45.367Z,11.50
2023-03-29T03:08:47.090Z,12.30
2023-03-29T03:13:48.592Z,12.70
2023-03-29T03:18:51.893Z,9.50
2023-03-29T03:23:54.893Z,11.80
2023-03-29T03:28:57.801Z,8.80
2023-03-29T03:33:59.926Z,14.50
2023-03-29T03:39:03.186Z,11.80
2023-03-29T03:44:04.879Z,16.90
2023-03-29T03:49:06.385Z,15.80
2023-03-29T03:54:08.119Z,16.30
2023-03-29T03:59:09.629Z,16.50
2023-03-29T04:04:12.178Z,18.60
2023-03-29T04:09:13.782Z,13.00
2023-03-29T04:14:15.292Z,19.40
2023-03-29T04:19:16.862Z,16.90
2023-03-29T04:24:18.375Z,24.10
2023-03-29T04:29:20.058Z,19.50
2023-03-29T04:34:21.611Z,20.00
2023-03-29T04:39:23.084Z,16.30
2023-03-29T04:44:24.582Z,18.50
2023-03-29T04:49:26.918Z,16.50
2023-03-29T04:54:28.443Z,16.60
2023-03-29T04:59:30.865Z,13.60
2023-03-29T05:04:33.097Z,13.30
2023-03-29T05:09:35.701Z,7.30
2023-03-29T05:14:37.302Z,12.20
2023-03-29T05:19:38.837Z,12.80
2023-03-29T05:24:40.400Z,12.10
2023-03-29T05:29:41.898Z,13.00
2023-03-29T05:34:43.555Z,10.30
2023-03-29T05:39:45.435Z,10.50
2023-03-29T05:44:46.927Z,9.20
2023-03-29T05:49:48.435Z,7.30
2023-03-29T05:54:50.673Z,8.60
2023-03-29T05:59:52.181Z,10.40
2023-03-29T06:04:55.559Z,9.50
2023-03-29T06:09:57.090Z,6.90
2023-03-29T06:15:04.134Z,8.30
2023-03-29T06:20:10.853Z,9.90
2023-03-29T06:25:12.563Z,8.30
2023-03-29T06:30:15.703Z,8.40
2023-03-29T06:35:18.056Z,8.70
2023-03-29T06:40:21.392Z,7.80
2023-03-29T06:45:25.314Z,7.60
2023-03-29T06:50:29.408Z,7.50
2023-03-29T06:55:31.780Z,9.10
2023-03-29T07:00:35.884Z,8.30
2023-03-29T07:05:40.859Z,8.80
2023-03-29T07:10:48.018Z,7.50
2023-03-29T07:15:49.545Z,5.00
2023-03-29T07:20:52.485Z,8.10
2023-03-29T07:25:54.457Z,7.80
2023-03-29T07:31:06.929Z,5.00
2023-03-29T07:36:09.078Z,5.40
2023-03-29T07:41:11.051Z,6.30
2023-03-29T07:46:12.624Z,6.20
2023-03-29T07:51:14.484Z,6.20
2023-03-29T07:56:16.420Z,5.60
2023-03-29T08:01:20.097Z,4.40
2023-03-29T08:06:22.598Z,5.60
2023-03-29T08:11:25.185Z,6.00
2023-03-29T08:16:27.185Z,5.00
2023-03-29T08:21:28.951Z,4.20
2023-03-29T08:26:31.146Z,2.70
2023-03-29T08:31:33.727Z,4.20
2023-03-29T08:36:35.267Z,4.30
2023-03-29T08:41:42.656Z,3.60
2023-03-29T08:46:57.484Z,4.00
2023-03-29T08:52:02.571Z,2.90
2023-03-29T08:57:15.569Z,5.30
2023-03-29T09:02:26.425Z,2.10
2023-03-29T09:07:28.176Z,2.40
2023-03-29T09:12:54.916Z,2.90
2023-03-29T09:18:21.270Z,3.00
2023-03-29T09:23:42.016Z,1.40
2023-03-29T09:28:59.993Z,2.20
2023-03-29T09:34:13.651Z,2.40
2023-03-29T09:39:17.009Z,2.30
2023-03-29T09:44:31.238Z,2.20
2023-03-29T09:49:38.551Z,3.00
2023-03-29T09:54:41.168Z,2.80
2023-03-29T09:59:43.814Z,1.90
2023-03-29T10:04:45.426Z,2.30
2023-03-29T10:09:50.960Z,4.40
2023-03-29T10:14:54.417Z,2.50
2023-03-29T10:19:58.410Z,2.70
2023-03-29T10:25:00.029Z,2.80
2023-03-29T10:30:12.325Z,5.90
2023-03-29T10:35:23.930Z,2.80
2023-03-29T10:40:25.366Z,4.20
2023-03-29T10:45:31.338Z,2.20
2023-03-29T10:50:37.533Z,3.10
2023-03-29T10:55:53.420Z,2.70
2023-03-29T11:00:57.155Z,3.90
2023-03-29T11:06:21.996Z,2.00
2023-03-29T11:11:58.377Z,2.50
2023-03-29T11:17:20.826Z,2.50
2023-03-29T11:22:31.712Z,3.60
2023-03-29T11:27:44.925Z,2.80
2023-03-29T11:33:14.284Z,2.20
2023-03-29T11:38:45.316Z,3.70
2023-03-29T11:43:56.912Z,3.30
2023-03-29T11:49:39.660Z,2.40
2023-03-29T11:55:04.001Z,3.80
2023-03-29T12:00:49.948Z,2.90
2023-03-29T12:06:16.915Z,3.60
2023-03-29T12:11:40.702Z,2.70
2023-03-29T12:16:48.815Z,3.10
2023-03-29T12:21:54.551Z,2.70
2023-03-29T12:27:26.183Z,4.00
2023-03-29T12:32:47.101Z,2.60
2023-03-29T12:37:56.811Z,4.00
2023-03-29T12:43:04.402Z,3.60
2023-03-29T12:48:07.797Z,3.00
2023-03-29T12:53:26.827Z,3.00
2023-03-29T12:59:07.733Z,2.90
2023-03-29T13:04:20.719Z,3.30
2023-03-29T13:09:53.270Z,3.60
2023-03-29T13:15:07.605Z,4.50
2023-03-29T13:20:59.644Z,3.80
2023-03-29T13:26:14.831Z,4.00
2023-03-29T13:31:38.845Z,3.70
2023-03-29T13:37:28.355Z,4.10
2023-03-29T13:42:36.401Z,9.20
2023-03-29T13:47:48.911Z,5.50
2023-03-29T13:53:27.979Z,4.20
2023-03-29T13:58:43.245Z,4.80
2023-03-29T14:03:47.539Z,3.90
2023-03-29T14:08:49.958Z,7.80
2023-03-29T14:13:57.125Z,4.70
2023-03-29T14:19:02.862Z,4.60
2023-03-29T14:24:04.445Z,6.60
2023-03-29T14:29:10.050Z,11.20
2023-03-29T14:34:15.021Z,4.60
2023-03-29T14:39:19.531Z,3.40
2023-03-29T14:44:24.162Z,3.50
2023-03-29T14:49:26.429Z,4.70
2023-03-29T14:54:34.317Z,5.70
2023-03-29T14:59:38.347Z,5.00
2023-03-29T15:04:39.854Z,5.20
2023-03-29T15:09:41.495Z,5.50
2023-03-29T15:14:43.316Z,5.40
2023-03-29T15:19:44.817Z,4.20
2023-03-29T15:24:48.910Z,4.30
2023-03-29T15:30:01.383Z,5.30
2023-03-29T15:35:06.344Z,7.30
2023-03-29T15:40:16.434Z,8.70
2023-03-29T15:45:21.372Z,6.80
2023-03-29T15:50:23.443Z,5.90
2023-03-29T15:55:26.464Z,7.00
2023-03-29T16:00:28.751Z,6.80
2023-03-29T16:05:30.592Z,4.80
2023-03-29T16:10:32.153Z,5.50
2023-03-29T16:15:36.796Z,6.80
2023-03-29T16:20:38.428Z,5.70
2023-03-29T16:25:40.769Z,7.00
2023-03-29T16:30:43.469Z,5.90
2023-03-29T16:35:45.209Z,5.30
2023-03-29T16:40:47.590Z,5.90
2023-03-29T16:45:49.136Z,7.80
2023-03-29T16:50:50.944Z,8.30
2023-03-29T16:55:52.586Z,10.30
2023-03-29T17:00:54.523Z,22.40
2023-03-29T17:05:58.041Z,19.20
2023-03-29T17:11:00.033Z,33.40
2023-03-29T17:16:01.978Z,30.40
2023-03-29T17:21:04.494Z,21.40
2023-03-29T17:26:07.081Z,21.40
2023-03-29T17:31:08.836Z,18.10
2023-03-29T17:36:11.155Z,12.70
2023-03-29T17:41:12.856Z,21.50
2023-03-29T17:46:16.666Z,14.50
2023-03-29T17:51:20.124Z,12.10
2023-03-29T17:56:23.033Z,18.40
2023-03-29T18:01:25.425Z,12.30
2023-03-29T18:06:29.188Z,45.70
2023-03-29T18:11:31.190Z,22.20
2023-03-29T18:16:33.928Z,131.30
2023-03-29T18:21:37.190Z,42.90
2023-03-29T18:26:39.580Z,46.10
2023-03-29T18:31:41.323Z,36.70
2023-03-29T18:36:43.334Z,130.60
2023-03-29T18:41:45.230Z,166.70
2023-03-29T18:46:49.830Z,432.90
2023-03-29T18:51:51.672Z,774.50
2023-03-29T18:56:53.415Z,745.50
2023-03-29T19:01:57.746Z,313.40
2023-03-29T19:07:01.733Z,268.80
2023-03-29T19:12:03.907Z,102.50
2023-03-29T19:17:05.415Z,51.30
2023-03-29T19:22:07.053Z,44.30
2023-03-29T19:27:11.345Z,51.70
2023-03-29T19:32:14.216Z,66.50
2023-03-29T19:37:17.672Z,110.50
2023-03-29T19:42:19.190Z,78.10
2023-03-29T19:47:21.241Z,97.30
2023-03-29T19:52:24.506Z,40.90
2023-03-29T19:57:26.278Z,33.90
2023-03-29T20:02:27.807Z,27.20
2023-03-29T20:07:29.761Z,23.60
2023-03-29T20:12:32.056Z,23.40
2023-03-29T20:17:35.547Z,20.90
2023-03-29T20:22:42.109Z,19.80
2023-03-29T20:27:45.416Z,19.90
2023-03-29T20:32:47.177Z,24.90
2023-03-29T20:37:48.893Z,26.00
2023-03-29T20:42:50.946Z,28.20
2023-03-29T20:48:01.972Z,65.80
2023-03-29T20:53:06.280Z,29.20
2023-03-29T20:58:07.882Z,25.80
2023-03-29T21:03:09.924Z,28.30
2023-03-29T21:08:11.689Z,40.90
2023-03-29T21:13:13.265Z,24.90
2023-03-29T21:18:15.762Z,53.60
2023-03-29T21:23:17.340Z,46.30
2023-03-29T21:28:18.936Z,36.70
2023-03-29T21:33:21.081Z,54.00
2023-03-29T21:38:23.030Z,56.10
2023-03-29T21:43:24.577Z,39.10
2023-03-29T21:48:26.489Z,40.20
2023-03-29T21:53:28.291Z,37.20
2023-03-29T21:58:29.846Z,36.40
2023-03-29T22:03:31.393Z,38.60
2023-03-29T22:08:33.036Z,39.40
2023-03-29T22:13:36.401Z,30.70
2023-03-29T22:18:44.198Z,28.20
2023-03-29T22:23:48.469Z,27.50
2023-03-29T22:28:51.787Z,17.80
2023-03-29T22:33:54.065Z,16.80
2023-03-29T22:38:56.298Z,20.70
2023-03-29T22:44:01.090Z,18.10
2023-03-29T22:49:03.181Z,26.70
2023-03-29T22:54:04.809Z,31.40
2023-03-29T22:59:06.500Z,22.10
2023-03-29T23:04:08.567Z,24.70
2023-03-29T23:09:10.626Z,23.50
2023-03-29T23:14:12.125Z,23.70
2023-03-29T23:19:13.653Z,19.50
2023-03-29T23:24:18.987Z,20.50
2023-03-29T23:29:21.065Z,22.70
2023-03-29T23:34:23.075Z,25.50
2023-03-29T23:39:25.151Z,21.30
2023-03-29T23:44:26.709Z,21.20
2023-03-29T23:49:28.521Z,17.40
2023-03-29T23:54:30.517Z,15.30
2023-03-29T23:59:37.717Z,18.20
